createdAt,value
2019-03-18T00:00:13.956Z,31.90
2019-03-18T00:02:42.483Z,30.00
2019-03-18T00:05:11.099Z,28.90
2019-03-18T00:07:39.675Z,28.60
2019-03-18T00:10:08.522Z,29.00
2019-03-18T00:12:37.155Z,27.40
2019-03-18T00:15:07.850Z,28.00
2019-03-18T00:17:36.343Z,28.40
2019-03-18T00:20:06.715Z,27.80
2019-03-18T00:22:35.417Z,27.30
2019-03-18T00:25:05.593Z,26.80
2019-03-18T00:27:34.091Z,27.20
2019-03-18T00:30:02.615Z,27.00
2019-03-18T00:32:31.115Z,27.00
2019-03-18T00:34:59.704Z,27.00
2019-03-18T00:37:28.300Z,27.50
2019-03-18T00:39:56.853Z,27.50
2019-03-18T00:42:25.348Z,29.00
2019-03-18T00:44:53.942Z,27.70
2019-03-18T00:47:22.431Z,28.10
2019-03-18T00:49:50.932Z,28.30
2019-03-18T00:52:19.393Z,29.60
2019-03-18T00:54:47.801Z,29.70
2019-03-18T00:57:16.223Z,29.00
2019-03-18T00:59:44.792Z,27.80
2019-03-18T01:02:13.295Z,28.20
2019-03-18T01:04:41.877Z,27.90
2019-03-18T01:07:10.480Z,28.40
2019-03-18T01:09:38.961Z,28.90
2019-03-18T01:12:07.445Z,28.00
2019-03-18T01:14:35.981Z,27.60
2019-03-18T01:17:04.395Z,27.80
2019-03-18T01:19:32.873Z,30.60
2019-03-18T01:22:01.400Z,32.50
2019-03-18T01:24:29.885Z,32.80
2019-03-18T01:26:58.377Z,34.00
2019-03-18T01:29:26.903Z,33.00
2019-03-18T01:31:55.462Z,32.20
2019-03-18T01:34:24.093Z,30.30
2019-03-18T01:36:52.616Z,29.40
2019-03-18T01:39:21.105Z,28.80
2019-03-18T01:41:49.656Z,29.20
2019-03-18T01:44:18.064Z,30.10
2019-03-18T01:46:46.567Z,30.70
2019-03-18T01:49:15.122Z,30.00
2019-03-18T01:51:43.601Z,28.60
2019-03-18T01:54:12.082Z,29.20
2019-03-18T01:56:40.495Z,29.70
2019-03-18T01:59:09.022Z,31.60
2019-03-18T02:01:37.539Z,32.50
2019-03-18T02:04:06.013Z,32.40
2019-03-18T02:06:34.482Z,33.00
2019-03-18T02:09:03.820Z,34.80
2019-03-18T02:11:32.443Z,35.10
2019-03-18T02:14:01.054Z,33.40
2019-03-18T02:16:29.526Z,35.30
2019-03-18T02:18:58.019Z,33.30
2019-03-18T02:21:26.545Z,34.30
2019-03-18T02:23:55.037Z,34.10
2019-03-18T02:26:23.519Z,32.20
2019-03-18T02:28:52.056Z,32.20
2019-03-18T02:31:20.479Z,32.20
2019-03-18T02:33:49.239Z,32.20
2019-03-18T02:36:17.824Z,32.00
2019-03-18T02:38:46.379Z,32.90
2019-03-18T02:41:14.896Z,31.70
2019-03-18T02:43:43.369Z,31.30
2019-03-18T02:46:11.871Z,32.00
2019-03-18T02:48:40.433Z,33.50
2019-03-18T02:51:09.100Z,33.80
2019-03-18T02:53:37.654Z,35.40
2019-03-18T02:56:06.154Z,34.60
2019-03-18T02:58:34.689Z,32.50
2019-03-18T03:01:03.318Z,33.10
2019-03-18T03:03:31.810Z,32.70
2019-03-18T03:06:00.434Z,33.20
2019-03-18T03:08:29.722Z,32.90
2019-03-18T03:10:58.214Z,32.60
2019-03-18T03:13:26.887Z,32.60
2019-03-18T03:15:55.292Z,33.30
2019-03-18T03:18:23.778Z,33.90
2019-03-18T03:20:52.311Z,33.20
2019-03-18T03:23:20.937Z,33.30
2019-03-18T03:25:49.489Z,33.50
2019-03-18T03:28:18.016Z,33.60
2019-03-18T03:30:46.581Z,32.90
2019-03-18T03:33:15.064Z,32.30
2019-03-18T03:35:43.667Z,30.40
2019-03-18T03:38:12.153Z,32.50
2019-03-18T03:40:40.774Z,34.70
2019-03-18T03:43:09.299Z,33.80
2019-03-18T03:45:37.786Z,32.60
2019-03-18T03:48:06.301Z,32.60
2019-03-18T03:50:34.819Z,32.60
2019-03-18T03:53:03.303Z,32.80
2019-03-18T03:55:31.778Z,33.20
2019-03-18T03:58:00.312Z,33.20
2019-03-18T04:00:28.895Z,32.10
2019-03-18T04:02:57.532Z,31.40
2019-03-18T04:05:26.076Z,30.50
2019-03-18T04:07:54.627Z,31.40
2019-03-18T04:10:24.139Z,31.60
2019-03-18T04:12:52.657Z,32.60
2019-03-18T04:15:21.143Z,32.20
2019-03-18T04:17:49.620Z,33.30
2019-03-18T04:20:18.203Z,33.60
2019-03-18T04:22:46.758Z,34.30
2019-03-18T04:25:15.311Z,35.20
2019-03-18T04:27:43.857Z,34.60
2019-03-18T04:30:13.827Z,34.60
2019-03-18T04:32:42.330Z,34.90
2019-03-18T04:35:10.913Z,34.10
2019-03-18T04:37:39.335Z,34.40
2019-03-18T04:40:09.188Z,34.70
2019-03-18T04:42:37.729Z,35.00
2019-03-18T04:45:07.359Z,32.80
2019-03-18T04:47:35.911Z,32.80
2019-03-18T04:50:06.017Z,32.90
2019-03-18T04:52:34.509Z,32.90
2019-03-18T04:55:02.997Z,33.40
2019-03-18T04:57:31.519Z,33.30
2019-03-18T05:00:00.009Z,33.40
2019-03-18T05:02:28.570Z,32.80
2019-03-18T05:04:57.098Z,32.90
2019-03-18T05:07:25.595Z,31.80
2019-03-18T05:09:54.144Z,30.70
2019-03-18T05:12:23.653Z,32.50
2019-03-18T05:14:52.148Z,32.50
2019-03-18T05:17:26.598Z,32.90
2019-03-18T05:19:50.890Z,33.50
2019-03-18T05:22:19.377Z,33.30
2019-03-18T05:24:47.879Z,33.50
2019-03-18T05:27:16.475Z,33.00
2019-03-18T05:29:44.968Z,32.20
2019-03-18T05:32:13.462Z,32.80
2019-03-18T05:34:41.996Z,33.00
2019-03-18T05:37:10.539Z,33.40
2019-03-18T05:39:39.107Z,33.70
2019-03-18T05:42:07.691Z,33.60
2019-03-18T05:44:36.386Z,33.70
2019-03-18T05:47:04.969Z,32.70
2019-03-18T05:49:33.629Z,32.80
2019-03-18T05:52:02.117Z,32.50
2019-03-18T05:54:30.584Z,32.60
2019-03-18T05:56:59.134Z,32.20
2019-03-18T05:59:27.612Z,33.00
2019-03-18T06:01:56.030Z,33.10
2019-03-18T06:04:24.545Z,33.20
2019-03-18T06:06:52.952Z,32.50
2019-03-18T06:09:21.494Z,31.90
2019-03-18T06:11:50.014Z,32.00
2019-03-18T06:14:19.337Z,32.10
2019-03-18T06:16:47.825Z,32.00
2019-03-18T06:19:16.343Z,32.20
2019-03-18T06:21:44.836Z,32.40
2019-03-18T06:24:13.243Z,31.50
2019-03-18T06:26:41.818Z,32.40
2019-03-18T06:29:10.374Z,33.60
2019-03-18T06:31:38.920Z,33.90
2019-03-18T06:34:07.514Z,33.80
2019-03-18T06:36:36.072Z,32.20
2019-03-18T06:39:06.103Z,32.60
2019-03-18T06:41:34.617Z,33.50
2019-03-18T06:44:03.102Z,34.00
2019-03-18T06:46:31.652Z,34.50
2019-03-18T06:49:00.327Z,34.70
2019-03-18T06:51:28.940Z,35.50
2019-03-18T06:53:57.371Z,36.80
2019-03-18T06:56:25.838Z,37.40
2019-03-18T06:58:54.386Z,37.10
2019-03-18T07:01:22.876Z,38.20
2019-03-18T07:03:51.548Z,36.70
2019-03-18T07:06:20.023Z,37.20
2019-03-18T07:08:48.577Z,37.50
2019-03-18T07:11:18.207Z,37.20
2019-03-18T07:13:46.691Z,37.50
2019-03-18T07:16:16.084Z,38.00
2019-03-18T07:18:44.606Z,37.50
2019-03-18T07:21:14.740Z,36.30
2019-03-18T07:23:43.305Z,36.70
2019-03-18T07:26:11.891Z,36.70
2019-03-18T07:28:40.451Z,36.20
2019-03-18T07:31:09.017Z,36.20
2019-03-18T07:33:37.534Z,36.00
2019-03-18T07:36:05.953Z,36.70
2019-03-18T07:38:34.450Z,36.50
2019-03-18T07:41:03.049Z,35.10
2019-03-18T07:43:31.528Z,34.60
2019-03-18T07:45:59.939Z,34.40
2019-03-18T07:48:31.179Z,33.90
2019-03-18T07:50:58.753Z,35.50
2019-03-18T07:53:27.246Z,36.50
2019-03-18T07:55:55.761Z,37.40
2019-03-18T07:58:24.317Z,37.40
2019-03-18T08:00:52.926Z,37.20
2019-03-18T08:03:21.607Z,36.80
2019-03-18T08:05:50.159Z,37.60
2019-03-18T08:08:20.341Z,36.50
2019-03-18T08:10:48.985Z,35.20
2019-03-18T08:13:17.535Z,35.20
2019-03-18T08:15:46.326Z,35.00
2019-03-18T08:18:15.733Z,34.60
2019-03-18T08:20:44.284Z,34.30
2019-03-18T08:23:12.768Z,34.30
2019-03-18T08:25:41.990Z,34.50
2019-03-18T08:28:10.546Z,35.00
2019-03-18T08:30:39.191Z,34.80
2019-03-18T08:33:07.805Z,35.10
2019-03-18T08:35:36.427Z,35.00
2019-03-18T08:38:04.907Z,34.90
2019-03-18T08:40:33.557Z,35.20
2019-03-18T08:43:02.405Z,34.80
2019-03-18T08:45:30.949Z,36.10
2019-03-18T08:47:59.490Z,37.50
2019-03-18T08:50:27.992Z,36.70
2019-03-18T08:52:56.477Z,35.60
2019-03-18T08:55:25.082Z,35.40
2019-03-18T08:57:53.570Z,32.60
2019-03-18T09:00:22.293Z,32.30
2019-03-18T09:02:50.821Z,31.20
2019-03-18T09:05:19.458Z,30.00
2019-03-18T09:07:47.947Z,29.70
2019-03-18T09:10:17.677Z,30.10
2019-03-18T09:12:46.235Z,31.00
2019-03-18T09:15:14.846Z,32.00
2019-03-18T09:17:43.340Z,33.00
2019-03-18T09:20:17.387Z,32.50
2019-03-18T09:22:46.348Z,32.50
2019-03-18T09:25:14.904Z,31.90
2019-03-18T09:27:43.370Z,31.30
2019-03-18T09:30:18.193Z,31.20
2019-03-18T09:32:46.657Z,30.80
2019-03-18T09:35:15.358Z,30.30
2019-03-18T09:37:43.891Z,30.90
2019-03-18T09:40:14.842Z,31.90
2019-03-18T09:42:44.066Z,32.90
2019-03-18T09:45:19.113Z,32.50
2019-03-18T09:47:47.599Z,31.60
2019-03-18T09:50:16.164Z,32.50
2019-03-18T09:52:44.715Z,33.20
2019-03-18T09:55:13.280Z,31.50
2019-03-18T09:57:41.778Z,31.10
2019-03-18T10:00:16.194Z,31.90
2019-03-18T10:02:44.750Z,31.20
2019-03-18T10:05:13.239Z,32.00
2019-03-18T10:07:41.829Z,32.70
2019-03-18T10:10:12.384Z,33.60
2019-03-18T10:12:40.893Z,33.00
2019-03-18T10:15:14.771Z,32.00
2019-03-18T10:17:43.256Z,31.20
2019-03-18T10:20:11.816Z,30.80
2019-03-18T10:22:41.252Z,31.10
2019-03-18T10:25:09.829Z,31.90
2019-03-18T10:27:38.319Z,32.50
2019-03-18T10:30:12.160Z,32.90
2019-03-18T10:32:40.719Z,33.30
2019-03-18T10:35:09.641Z,32.80
2019-03-18T10:37:38.229Z,32.50
2019-03-18T10:40:16.254Z,32.20
2019-03-18T10:42:47.498Z,32.10
2019-03-18T10:45:15.999Z,31.50
2019-03-18T10:47:44.471Z,31.10
2019-03-18T10:50:16.910Z,31.90
2019-03-18T10:52:45.320Z,32.00
2019-03-18T10:55:13.877Z,31.50
2019-03-18T10:57:42.473Z,32.20
2019-03-18T11:00:15.962Z,32.00
2019-03-18T11:02:45.306Z,31.90
2019-03-18T11:05:14.843Z,32.50
2019-03-18T11:07:43.497Z,31.70
2019-03-18T11:10:14.137Z,31.30
2019-03-18T11:12:42.796Z,31.10
2019-03-18T11:15:14.466Z,31.90
2019-03-18T11:17:42.949Z,31.90
2019-03-18T11:20:13.244Z,31.10
2019-03-18T11:22:41.666Z,31.00
2019-03-18T11:25:11.714Z,30.30
2019-03-18T11:27:40.329Z,30.30
2019-03-18T11:30:14.145Z,29.90
2019-03-18T11:32:42.637Z,30.00
2019-03-18T11:35:11.177Z,28.70
2019-03-18T11:37:39.811Z,27.50
2019-03-18T11:40:11.633Z,26.30
2019-03-18T11:42:40.295Z,26.60
2019-03-18T11:45:12.865Z,27.40
2019-03-18T11:47:41.415Z,28.40
2019-03-18T11:50:12.193Z,28.70
2019-03-18T11:52:40.674Z,28.70
2019-03-18T11:55:17.399Z,28.90
2019-03-18T11:57:46.022Z,29.80
2019-03-18T12:00:17.046Z,29.90
2019-03-18T12:02:45.582Z,29.60
2019-03-18T12:05:24.641Z,28.40
2019-03-18T12:07:53.172Z,29.20
2019-03-18T12:10:21.754Z,29.90
2019-03-18T12:12:50.307Z,29.20
2019-03-18T12:15:21.667Z,29.00
2019-03-18T12:17:50.426Z,29.30
2019-03-18T12:20:24.807Z,29.40
2019-03-18T12:22:49.578Z,28.30
2019-03-18T12:25:18.671Z,27.90
2019-03-18T12:27:47.330Z,28.40
2019-03-18T12:30:26.608Z,28.90
2019-03-18T12:32:55.009Z,28.80
2019-03-18T12:35:23.662Z,28.00
2019-03-18T12:37:52.415Z,27.80
2019-03-18T12:40:20.897Z,27.70
2019-03-18T12:42:49.426Z,28.30
2019-03-18T12:45:19.271Z,28.30
2019-03-18T12:47:47.988Z,28.40
2019-03-18T12:50:17.904Z,28.90
2019-03-18T12:52:46.913Z,29.30
2019-03-18T12:55:15.471Z,28.40
2019-03-18T12:57:43.950Z,27.90
2019-03-18T13:00:26.529Z,28.40
2019-03-18T13:02:55.015Z,29.30
2019-03-18T13:05:23.565Z,30.10
2019-03-18T13:07:52.080Z,29.60
2019-03-18T13:10:21.912Z,28.80
2019-03-18T13:12:50.599Z,28.10
2019-03-18T13:15:20.642Z,28.50
2019-03-18T13:17:49.275Z,28.40
2019-03-18T13:20:19.862Z,29.00
2019-03-18T13:22:48.808Z,28.40
2019-03-18T13:25:18.302Z,29.10
2019-03-18T13:27:47.844Z,29.20
2019-03-18T13:30:20.374Z,29.30
2019-03-18T13:32:49.138Z,30.00
2019-03-18T13:35:18.029Z,29.00
2019-03-18T13:37:46.626Z,28.90
2019-03-18T13:40:15.695Z,28.70
2019-03-18T13:42:44.168Z,28.80
2019-03-18T13:45:20.784Z,28.40
2019-03-18T13:47:49.278Z,28.30
2019-03-18T13:50:21.467Z,27.80
2019-03-18T13:52:50.129Z,27.80
2019-03-18T13:55:18.757Z,28.10
2019-03-18T13:57:47.254Z,28.10
2019-03-18T14:00:17.690Z,28.30
2019-03-18T14:02:46.429Z,28.60
2019-03-18T14:05:15.166Z,28.00
2019-03-18T14:07:43.768Z,28.60
2019-03-18T14:10:14.365Z,29.10
2019-03-18T14:12:42.854Z,29.40
2019-03-18T14:15:14.015Z,29.40
2019-03-18T14:17:42.490Z,29.30
2019-03-18T14:20:13.818Z,29.50
2019-03-18T14:22:43.681Z,29.80
2019-03-18T14:25:12.730Z,29.70
2019-03-18T14:27:41.344Z,29.40
2019-03-18T14:30:22.282Z,28.80
2019-03-18T14:32:50.777Z,28.60
2019-03-18T14:35:21.463Z,28.70
2019-03-18T14:37:49.495Z,29.00
2019-03-18T14:40:22.080Z,28.60
2019-03-18T14:42:50.585Z,28.80
2019-03-18T14:45:25.134Z,28.60
2019-03-18T14:48:14.610Z,28.70
2019-03-18T14:50:43.419Z,28.60
2019-03-18T14:53:11.975Z,28.20
2019-03-18T14:55:40.486Z,28.60
2019-03-18T14:58:09.011Z,28.10
2019-03-18T15:00:37.865Z,26.90
2019-03-18T15:03:06.395Z,26.70
2019-03-18T15:05:37.027Z,26.90
2019-03-18T15:08:05.169Z,26.70
2019-03-18T15:10:33.657Z,26.20
2019-03-18T15:13:02.252Z,26.40
2019-03-18T15:15:30.781Z,26.30
2019-03-18T15:17:59.338Z,26.10
2019-03-18T15:20:28.664Z,26.40
2019-03-18T15:22:57.235Z,27.10
2019-03-18T15:25:30.571Z,26.70
2019-03-18T15:27:59.249Z,26.30
2019-03-18T15:30:31.193Z,26.20
2019-03-18T15:33:00.208Z,26.20
2019-03-18T15:35:28.808Z,26.60
2019-03-18T15:37:57.371Z,27.40
2019-03-18T15:40:27.867Z,28.10
2019-03-18T15:42:56.543Z,27.00
2019-03-18T15:45:25.023Z,27.10
2019-03-18T15:47:53.755Z,27.00
2019-03-18T15:50:26.186Z,26.80
2019-03-18T15:52:54.718Z,26.30
2019-03-18T15:55:24.356Z,24.90
2019-03-18T15:57:53.924Z,29.80
2019-03-18T16:05:22.223Z,27.60
2019-03-18T16:10:20.075Z,27.50
2019-03-18T16:12:48.770Z,29.10
2019-03-18T16:15:17.942Z,29.10
2019-03-18T16:17:46.587Z,28.00
2019-03-18T16:20:19.034Z,28.40
2019-03-18T16:22:47.592Z,28.40
2019-03-18T16:25:16.176Z,27.60
2019-03-18T16:27:44.820Z,27.90
2019-03-18T16:30:18.694Z,27.30
2019-03-18T16:32:47.323Z,27.40
2019-03-18T16:35:16.754Z,27.70
2019-03-18T16:37:45.327Z,26.60
2019-03-18T16:40:21.317Z,26.90
2019-03-18T16:42:49.959Z,27.00
2019-03-18T16:45:20.282Z,27.10
2019-03-18T16:47:48.996Z,27.80
2019-03-18T16:50:31.143Z,27.80
2019-03-18T16:52:59.768Z,28.20
2019-03-18T16:55:28.485Z,29.50
2019-03-18T16:57:57.156Z,29.50
2019-03-18T17:00:28.105Z,29.50
2019-03-18T17:02:56.738Z,30.00
2019-03-18T17:05:27.311Z,29.80
2019-03-18T17:07:55.636Z,29.60
2019-03-18T17:10:24.250Z,29.50
2019-03-18T17:12:52.844Z,29.40
2019-03-18T17:15:22.146Z,29.10
2019-03-18T17:17:50.857Z,29.20
2019-03-18T17:20:19.441Z,29.20
2019-03-18T17:22:50.003Z,29.20
2019-03-18T17:25:25.902Z,29.00
2019-03-18T17:27:54.612Z,28.70
2019-03-18T17:30:23.246Z,29.40
2019-03-18T17:32:51.790Z,29.70
2019-03-18T17:35:20.447Z,29.40
2019-03-18T17:37:48.913Z,28.50
2019-03-18T17:40:22.273Z,28.10
2019-03-18T17:42:50.991Z,29.20
2019-03-18T17:45:19.553Z,29.90
2019-03-18T17:47:48.243Z,40.50
2019-03-18T17:50:22.444Z,39.60
2019-03-18T17:53:01.493Z,40.80
2019-03-18T17:55:21.451Z,38.00
2019-03-18T17:57:50.045Z,37.50
2019-03-18T18:00:37.012Z,38.10
2019-03-18T18:03:05.698Z,37.70
2019-03-18T18:05:34.207Z,35.30
2019-03-18T18:08:02.709Z,33.50
2019-03-18T18:10:31.434Z,32.90
2019-03-18T18:13:00.231Z,31.10
2019-03-18T18:15:29.029Z,29.60
2019-03-18T18:17:57.699Z,29.50
2019-03-18T18:20:26.329Z,29.70
2019-03-18T18:22:54.905Z,29.20
2019-03-18T18:25:24.198Z,28.90
2019-03-18T18:27:52.883Z,29.30
2019-03-18T18:30:21.430Z,28.60
2019-03-18T18:32:50.043Z,27.80
2019-03-18T18:35:18.693Z,27.90
2019-03-18T18:37:47.629Z,26.70
2019-03-18T18:40:26.566Z,25.90
2019-03-18T18:42:55.056Z,25.70
2019-03-18T18:45:24.020Z,25.30
2019-03-18T18:47:52.625Z,24.50
2019-03-18T18:50:21.243Z,24.00
2019-03-18T18:52:49.967Z,23.60
2019-03-18T18:55:18.482Z,23.40
2019-03-18T18:57:46.981Z,23.30
2019-03-18T19:00:19.291Z,23.30
2019-03-18T19:02:47.896Z,23.10
2019-03-18T19:05:19.542Z,23.50
2019-03-18T19:07:48.126Z,24.10
2019-03-18T19:10:17.703Z,24.00
2019-03-18T19:12:46.340Z,23.80
2019-03-18T19:15:18.091Z,23.20
2019-03-18T19:17:47.187Z,23.30
2019-03-18T19:20:15.807Z,22.90
2019-03-18T19:22:44.537Z,24.30
2019-03-18T19:25:16.713Z,27.30
2019-03-18T19:30:16.415Z,30.80
2019-03-18T19:35:13.315Z,37.30
2019-03-18T19:37:42.776Z,36.00
2019-03-18T19:40:16.479Z,36.70
2019-03-18T19:45:14.196Z,39.00
2019-03-18T19:47:42.860Z,37.90
2019-03-18T19:50:14.089Z,40.70
2019-03-18T19:55:12.448Z,42.10
2019-03-18T20:00:19.618Z,35.00
2019-03-18T20:02:48.283Z,40.40
2019-03-18T20:05:20.291Z,40.30
2019-03-18T20:07:49.188Z,41.20
2019-03-18T20:10:21.730Z,40.50
2019-03-18T20:12:50.415Z,40.90
2019-03-18T20:15:19.690Z,40.80
2019-03-18T20:17:48.389Z,39.00
2019-03-18T20:22:47.935Z,41.40
2019-03-18T20:30:19.659Z,44.60
2019-03-18T20:32:50.122Z,43.90
2019-03-18T20:37:51.912Z,44.80
2019-03-18T20:40:20.297Z,44.00
2019-03-18T20:42:49.329Z,40.40
2019-03-18T20:47:51.362Z,47.30
2019-03-18T20:50:21.839Z,47.10
2019-03-18T20:52:50.589Z,49.70
2019-03-18T20:55:19.245Z,51.30
2019-03-18T20:57:48.689Z,51.00
2019-03-18T21:00:25.809Z,47.10
2019-03-18T21:05:25.149Z,45.50
2019-03-18T21:17:50.045Z,42.20
2019-03-18T21:20:23.108Z,41.60
2019-03-18T21:22:53.392Z,44.60
2019-03-18T21:25:22.069Z,47.40
2019-03-18T21:27:50.940Z,47.40
2019-03-18T21:30:21.984Z,46.80
2019-03-18T21:32:50.714Z,45.40
2019-03-18T21:35:19.375Z,44.60
2019-03-18T21:42:49.105Z,44.00
2019-03-18T21:45:24.688Z,39.70
2019-03-18T21:47:53.217Z,39.50
2019-03-18T21:50:21.775Z,39.60
2019-03-18T21:52:50.441Z,36.70
2019-03-18T21:55:40.732Z,31.00
2019-03-18T21:58:09.450Z,31.30
2019-03-18T22:00:37.989Z,30.00
2019-03-18T22:03:06.579Z,31.80
2019-03-18T22:05:35.243Z,32.50
2019-03-18T22:08:03.862Z,32.50
2019-03-18T22:10:32.540Z,33.30
2019-03-18T22:13:01.123Z,30.60
2019-03-18T22:15:29.625Z,29.40
2019-03-18T22:17:58.267Z,29.30
2019-03-18T22:20:26.759Z,29.10
2019-03-18T22:22:55.384Z,30.60
2019-03-18T22:25:23.910Z,31.30
2019-03-18T22:27:52.615Z,32.10
2019-03-18T22:30:21.327Z,32.00
2019-03-18T22:32:49.846Z,32.20
2019-03-18T22:35:18.868Z,32.60
2019-03-18T22:37:47.357Z,32.20
2019-03-18T22:40:17.747Z,32.80
2019-03-18T22:42:46.275Z,32.70
2019-03-18T22:45:15.739Z,33.60
2019-03-18T22:47:44.258Z,33.60
2019-03-18T22:50:14.874Z,34.00
2019-03-18T22:52:43.364Z,33.20
2019-03-18T22:55:13.884Z,33.70
2019-03-18T22:57:42.374Z,33.20
2019-03-18T23:00:21.453Z,33.80
2019-03-18T23:02:50.122Z,33.50
2019-03-18T23:05:18.665Z,35.00
2019-03-18T23:07:47.279Z,34.60
2019-03-18T23:10:16.360Z,34.70
2019-03-18T23:12:44.998Z,34.80
2019-03-18T23:15:13.669Z,32.10
2019-03-18T23:17:42.231Z,30.10
2019-03-18T23:20:10.787Z,31.40
2019-03-18T23:22:39.377Z,33.00
2019-03-18T23:25:08.335Z,34.80
2019-03-18T23:27:36.995Z,33.80
2019-03-18T23:30:11.022Z,34.40
2019-03-18T23:32:39.568Z,34.20
2019-03-18T23:35:09.747Z,31.70
2019-03-18T23:37:38.203Z,31.20
2019-03-18T23:40:13.962Z,31.60
2019-03-18T23:42:42.559Z,30.80
2019-03-18T23:45:11.412Z,32.00
2019-03-18T23:47:39.911Z,33.00
2019-03-18T23:50:16.009Z,34.60
2019-03-18T23:52:44.483Z,34.70
2019-03-18T23:55:19.522Z,34.20
2019-03-18T23:57:43.256Z,34.90
